Wetterdaten: Woche 11.04.05 - 17.04.05 (KW15)
Datum Zeit Temperatur Luftfeuchte Luftdruck Niederschlag Windrichtung Wind
11.04.2005 00:00 4,5 C 68 % 1025 hPa 0,0 l/m N-NO 5,6 km/h (1 Bft)
11.04.2005 01:00 4,3 C 69 % 1025 hPa 0,0 l/m N-NO 8,2 km/h (2 Bft)
11.04.2005 02:00 3,9 C 70 % 1025 hPa 0,0 l/m N-NO 9,7 km/h (2 Bft)
11.04.2005 03:00 3,5 C 71 % 1025 hPa 0,0 l/m N-NO 10,5 km/h (2 Bft)
11.04.2005 04:00 3,2 C 72 % 1024 hPa 0,0 l/m N 12,2 km/h (2 Bft)
11.04.2005 05:00 2,8 C 75 % 1023 hPa 0,0 l/m N 13,2 km/h (3 Bft)
11.04.2005 06:00 2,5 C 78 % 1024 hPa 0,0 l/m N 11,7 km/h (2 Bft)
11.04.2005 07:00 2,4 C 79 % 1024 hPa 0,0 l/m N-NO 15,1 km/h (3 Bft)
11.04.2005 08:00 3,1 C 75 % 1024 hPa 0,0 l/m N-NO 16,2 km/h (3 Bft)
11.04.2005 09:00 4,4 C 69 % 1024 hPa 0,0 l/m N-NO 19,4 km/h (3 Bft)
11.04.2005 10:00 7,4 C 55 % 1024 hPa 0,0 l/m NO 27,5 km/h (4 Bft)
11.04.2005 11:00 9,3 C 47 % 1024 hPa 0,0 l/m O-NO 30,7 km/h (5 Bft)
11.04.2005 12:00 9,3 C 51 % 1024 hPa 0,0 l/m N-NO 24,0 km/h (4 Bft)
11.04.2005 13:00 8,8 C 53 % 1024 hPa 0,0 l/m N-NO 25,3 km/h (4 Bft)
11.04.2005 14:00 8,9 C 50 % 1024 hPa 0,0 l/m N-NO 25,8 km/h (4 Bft)
11.04.2005 15:00 9,6 C 49 % 1024 hPa 0,0 l/m N 23,4 km/h (4 Bft)
11.04.2005 16:00 10,0 C 47 % 1023 hPa 0,0 l/m N-NO 27,0 km/h (4 Bft)
11.04.2005 17:00 10,0 C 46 % 1023 hPa 0,0 l/m N-NO 24,8 km/h (4 Bft)
11.04.2005 18:00 9,5 C 47 % 1023 hPa 0,0 l/m N-NO 22,2 km/h (4 Bft)
11.04.2005 19:00 8,7 C 51 % 1023 hPa 0,0 l/m N-NO 17,8 km/h (3 Bft)
11.04.2005 20:00 7,9 C 57 % 1023 hPa 0,0 l/m N-NO 13,6 km/h (3 Bft)
11.04.2005 21:00 7,5 C 59 % 1023 hPa 0,0 l/m N-NO 13,6 km/h (3 Bft)
11.04.2005 22:00 6,8 C 62 % 1023 hPa 0,0 l/m N-NO 13,7 km/h (3 Bft)
11.04.2005 23:00 6,8 C 64 % 1023 hPa 0,0 l/m N-NO 14,8 km/h (3 Bft)
12.04.2005 00:00 6,6 C 64 % 1022 hPa 0,0 l/m N-NO 14,3 km/h (3 Bft)
12.04.2005 01:00 6,2 C 68 % 1022 hPa 0,0 l/m N-NO 12,5 km/h (3 Bft)
12.04.2005 02:00 5,8 C 71 % 1021 hPa 0,0 l/m N-NO 13,2 km/h (3 Bft)
12.04.2005 03:00 5,5 C 73 % 1020 hPa 0,0 l/m N 13,2 km/h (3 Bft)
12.04.2005 04:00 5,2 C 75 % 1020 hPa 0,0 l/m N 16,0 km/h (3 Bft)
12.04.2005 05:00 5,2 C 77 % 1019 hPa 0,0 l/m N 16,0 km/h (3 Bft)
12.04.2005 06:00 5,0 C 80 % 1019 hPa 0,0 l/m N 16,3 km/h (3 Bft)
12.04.2005 07:00 5,0 C 80 % 1019 hPa 0,0 l/m N 15,4 km/h (3 Bft)
12.04.2005 08:00 5,6 C 78 % 1019 hPa 0,0 l/m N 15,7 km/h (3 Bft)
12.04.2005 09:00 6,6 C 74 % 1019 hPa 0,0 l/m N-NO 16,5 km/h (3 Bft)
12.04.2005 10:00 7,5 C 67 % 1019 hPa 0,0 l/m NO 19,4 km/h (3 Bft)
12.04.2005 11:00 8,5 C 63 % 1019 hPa 0,0 l/m O-NO 20,1 km/h (4 Bft)
12.04.2005 12:00 9,4 C 59 % 1019 hPa 0,0 l/m O 14,4 km/h (3 Bft)
12.04.2005 13:00 9,8 C 58 % 1018 hPa 0,0 l/m N-NO 11,4 km/h (2 Bft)
12.04.2005 14:00 10,4 C 58 % 1018 hPa 0,0 l/m N-NO 9,2 km/h (2 Bft)
12.04.2005 15:00 11,3 C 56 % 1017 hPa 0,0 l/m O 7,2 km/h (2 Bft)
12.04.2005 16:00 11,7 C 53 % 1017 hPa 0,0 l/m O 5,1 km/h (1 Bft)
12.04.2005 17:00 11,7 C 54 % 1017 hPa 0,0 l/m N 0,1 km/h (0 Bft)
12.04.2005 18:00 11,1 C 60 % 1016 hPa 0,0 l/m S-SW 3,2 km/h (1 Bft)
12.04.2005 19:00 10,3 C 64 % 1016 hPa 0,0 l/m W 6,3 km/h (2 Bft)
12.04.2005 20:00 9,6 C 69 % 1016 hPa 0,0 l/m W 10,4 km/h (2 Bft)
12.04.2005 21:00 9,0 C 73 % 1017 hPa 0,0 l/m S-SW 1,7 km/h (1 Bft)
12.04.2005 22:00 8,0 C 82 % 1017 hPa 0,0 l/m S-SW 3,7 km/h (1 Bft)
12.04.2005 23:00 7,4 C 87 % 1017 hPa 0,0 l/m S-SW 3,6 km/h (1 Bft)
13.04.2005 00:00 6,9 C 91 % 1017 hPa 0,0 l/m S 10,0 km/h (2 Bft)
13.04.2005 01:00 6,6 C 94 % 1016 hPa 0,0 l/m S 3,2 km/h (1 Bft)
13.04.2005 02:00 6,4 C 95 % 1016 hPa 0,0 l/m S 2,3 km/h (1 Bft)
13.04.2005 03:00 6,2 C 96 % 1015 hPa 0,0 l/m S 0,8 km/h (0 Bft)
13.04.2005 04:00 6,1 C 97 % 1015 hPa 0,0 l/m N 0,0 km/h (0 Bft)
13.04.2005 05:00 6,0 C 97 % 1015 hPa 0,0 l/m N 0,0 km/h (0 Bft)
13.04.2005 06:00 5,9 C 98 % 1014 hPa 0,0 l/m N 0,0 km/h (0 Bft)
13.04.2005 07:00 6,0 C 99 % 1014 hPa 0,0 l/m S-SW 1,9 km/h (1 Bft)
13.04.2005 08:00 6,9 C 95 % 1014 hPa 0,0 l/m S 8,3 km/h (2 Bft)
13.04.2005 09:00 8,4 C 84 % 1014 hPa 0,0 l/m S 2,3 km/h (1 Bft)
13.04.2005 10:00 9,9 C 73 % 1014 hPa 0,0 l/m S 2,8 km/h (1 Bft)
13.04.2005 11:00 11,2 C 62 % 1014 hPa 0,0 l/m S 2,6 km/h (1 Bft)
13.04.2005 12:00 12,6 C 54 % 1013 hPa 0,0 l/m O-SO 9,0 km/h (2 Bft)
13.04.2005 13:00 13,1 C 52 % 1013 hPa 0,0 l/m O-NO 5,6 km/h (1 Bft)
13.04.2005 14:00 14,0 C 50 % 1013 hPa 0,0 l/m S-SW 8,4 km/h (2 Bft)
13.04.2005 15:00 14,0 C 49 % 1012 hPa 0,0 l/m SO 8,0 km/h (2 Bft)
13.04.2005 16:00 13,9 C 49 % 1012 hPa 0,0 l/m S 6,5 km/h (2 Bft)
13.04.2005 17:00 14,3 C 49 % 1011 hPa 0,0 l/m N 5,6 km/h (1 Bft)
13.04.2005 18:00 13,8 C 50 % 1011 hPa 0,0 l/m N-NO 6,8 km/h (2 Bft)
13.04.2005 19:00 12,8 C 58 % 1011 hPa 0,0 l/m O 1,7 km/h (1 Bft)
13.04.2005 20:00 11,2 C 72 % 1011 hPa 0,0 l/m W 0,3 km/h (0 Bft)
13.04.2005 21:00 10,5 C 75 % 1011 hPa 0,0 l/m W 0,7 km/h (0 Bft)
13.04.2005 22:00 10,1 C 74 % 1011 hPa 0,0 l/m N 0,0 km/h (0 Bft)
13.04.2005 23:00 9,5 C 78 % 1011 hPa 0,0 l/m N 0,0 km/h (0 Bft)
14.04.2005 00:00 8,4 C 80 % 1011 hPa 0,0 l/m N 0,0 km/h (0 Bft)
14.04.2005 01:00 6,7 C 84 % 1011 hPa 0,0 l/m N 0,0 km/h (0 Bft)
14.04.2005 02:00 5,4 C 86 % 1010 hPa 0,0 l/m N 0,0 km/h (0 Bft)
14.04.2005 03:00 4,5 C 89 % 1010 hPa 0,0 l/m N 0,0 km/h (0 Bft)
14.04.2005 04:00 3,7 C 91 % 1010 hPa 0,0 l/m N 0,0 km/h (0 Bft)
14.04.2005 05:00 2,7 C 93 % 1010 hPa 0,0 l/m N 0,0 km/h (0 Bft)
14.04.2005 06:00 2,1 C 95 % 1010 hPa 0,0 l/m N 0,0 km/h (0 Bft)
14.04.2005 07:00 2,5 C 97 % 1010 hPa 0,0 l/m N 0,0 km/h (0 Bft)
14.04.2005 08:00 3,7 C 99 % 1010 hPa 0,0 l/m N 0,0 km/h (0 Bft)
14.04.2005 09:00 6,9 C 98 % 1010 hPa 0,0 l/m S 6,6 km/h (2 Bft)
14.04.2005 10:00 11,0 C 72 % 1010 hPa 0,0 l/m S-SW 9,3 km/h (2 Bft)
14.04.2005 11:00 13,6 C 55 % 1009 hPa 0,0 l/m S 9,4 km/h (2 Bft)
14.04.2005 12:00 15,5 C 50 % 1009 hPa 0,0 l/m O-SO 8,8 km/h (2 Bft)
14.04.2005 13:00 17,0 C 44 % 1008 hPa 0,0 l/m O-NO 9,8 km/h (2 Bft)
14.04.2005 14:00 17,1 C 41 % 1007 hPa 0,0 l/m S-SW 6,9 km/h (2 Bft)
14.04.2005 15:00 18,6 C 36 % 1007 hPa 0,0 l/m S 11,1 km/h (2 Bft)
14.04.2005 16:00 18,2 C 36 % 1007 hPa 0,0 l/m S-SW 9,3 km/h (2 Bft)
14.04.2005 17:00 18,0 C 36 % 1006 hPa 0,0 l/m W 8,3 km/h (2 Bft)
14.04.2005 18:00 17,3 C 37 % 1006 hPa 0,0 l/m W 11,2 km/h (2 Bft)
14.04.2005 19:00 15,8 C 40 % 1006 hPa 0,0 l/m W-SW 8,8 km/h (2 Bft)
14.04.2005 20:00 13,6 C 48 % 1007 hPa 0,0 l/m W-SW 1,8 km/h (1 Bft)
14.04.2005 21:00 11,7 C 57 % 1007 hPa 0,0 l/m N 0,0 km/h (0 Bft)
14.04.2005 22:00 9,9 C 64 % 1007 hPa 0,0 l/m N 0,0 km/h (0 Bft)
14.04.2005 23:00 8,4 C 69 % 1007 hPa 0,0 l/m N 0,0 km/h (0 Bft)
15.04.2005 00:00 7,3 C 75 % 1007 hPa 0,0 l/m N 0,0 km/h (0 Bft)
15.04.2005 01:00 6,4 C 78 % 1007 hPa 0,0 l/m N 0,0 km/h (0 Bft)
15.04.2005 02:00 5,6 C 82 % 1006 hPa 0,0 l/m N 0,0 km/h (0 Bft)
15.04.2005 03:00 5,2 C 86 % 1006 hPa 0,0 l/m N 0,0 km/h (0 Bft)
15.04.2005 04:00 4,8 C 89 % 1006 hPa 0,0 l/m N 0,0 km/h (0 Bft)
15.04.2005 05:00 4,3 C 90 % 1006 hPa 0,0 l/m N 0,0 km/h (0 Bft)
15.04.2005 06:00 3,8 C 92 % 1005 hPa 0,0 l/m W-NW 0,4 km/h (0 Bft)
15.04.2005 07:00 4,5 C 95 % 1005 hPa 0,0 l/m N 0,0 km/h (0 Bft)
15.04.2005 08:00 7,0 C 94 % 1005 hPa 0,0 l/m NW 1,0 km/h (0 Bft)
15.04.2005 09:00 10,7 C 76 % 1005 hPa 0,0 l/m N 3,3 km/h (1 Bft)
15.04.2005 10:00 14,7 C 57 % 1005 hPa 0,0 l/m N 7,6 km/h (2 Bft)
15.04.2005 11:00 17,6 C 46 % 1005 hPa 0,0 l/m O 10,4 km/h (2 Bft)
15.04.2005 12:00 19,4 C 37 % 1004 hPa 0,0 l/m O-SO 7,8 km/h (2 Bft)
15.04.2005 13:00 20,7 C 33 % 1004 hPa 0,0 l/m N 10,6 km/h (2 Bft)
15.04.2005 14:00 21,4 C 28 % 1004 hPa 0,0 l/m S-SW 8,5 km/h (2 Bft)
15.04.2005 15:00 21,7 C 26 % 1004 hPa 0,0 l/m W-SW 9,4 km/h (2 Bft)
15.04.2005 16:00 21,4 C 25 % 1003 hPa 0,0 l/m SW 7,9 km/h (2 Bft)
15.04.2005 17:00 21,8 C 25 % 1003 hPa 0,0 l/m W-SW 5,3 km/h (1 Bft)
15.04.2005 18:00 20,8 C 26 % 1003 hPa 0,0 l/m O 14,0 km/h (3 Bft)
15.04.2005 19:00 17,8 C 35 % 1003 hPa 0,0 l/m O-SO 3,2 km/h (1 Bft)
15.04.2005 20:00 15,5 C 48 % 1004 hPa 0,0 l/m NW 12,8 km/h (3 Bft)
15.04.2005 21:00 12,8 C 67 % 1004 hPa 0,0 l/m NW 15,5 km/h (3 Bft)
15.04.2005 22:00 11,3 C 72 % 1005 hPa 0,0 l/m N-NW 11,9 km/h (2 Bft)
15.04.2005 23:00 10,2 C 75 % 1005 hPa 0,0 l/m N-NW 8,5 km/h (2 Bft)
16.04.2005 00:00 9,3 C 80 % 1004 hPa 0,0 l/m NW 9,5 km/h (2 Bft)
16.04.2005 01:00 8,7 C 82 % 1004 hPa 0,0 l/m NW 4,9 km/h (1 Bft)
16.04.2005 02:00 8,1 C 83 % 1004 hPa 0,0 l/m N 0,0 km/h (0 Bft)
16.04.2005 03:00 7,4 C 85 % 1004 hPa 0,0 l/m N 0,0 km/h (0 Bft)
16.04.2005 04:00 6,8 C 88 % 1003 hPa 0,0 l/m N-NW 0,9 km/h (0 Bft)
16.04.2005 05:00 6,2 C 91 % 1002 hPa 0,0 l/m N-NW 4,4 km/h (1 Bft)
16.04.2005 06:00 6,0 C 94 % 1002 hPa 0,0 l/m NW 2,7 km/h (1 Bft)
16.04.2005 07:00 6,8 C 96 % 1001 hPa 0,0 l/m N 6,8 km/h (2 Bft)
16.04.2005 08:00 9,0 C 91 % 1001 hPa 0,0 l/m N-NO 9,7 km/h (2 Bft)
16.04.2005 09:00 10,8 C 79 % 1000 hPa 0,0 l/m N-NO 13,3 km/h (3 Bft)
16.04.2005 10:00 12,9 C 65 % 999 hPa 0,0 l/m N-NO 16,0 km/h (3 Bft)
16.04.2005 11:00 14,0 C 62 % 999 hPa 0,0 l/m N-NO 14,5 km/h (3 Bft)
16.04.2005 12:00 15,7 C 55 % 998 hPa 0,0 l/m N-NO 18,3 km/h (3 Bft)
16.04.2005 13:00 16,4 C 45 % 997 hPa 0,0 l/m O-NO 19,8 km/h (4 Bft)
16.04.2005 14:00 16,6 C 40 % 997 hPa 0,0 l/m N-NO 19,8 km/h (3 Bft)
16.04.2005 15:00 16,8 C 42 % 996 hPa 0,0 l/m N-NO 20,4 km/h (4 Bft)
16.04.2005 16:00 18,5 C 36 % 995 hPa 0,0 l/m N-NO 26,7 km/h (4 Bft)
16.04.2005 17:00 17,4 C 38 % 995 hPa 0,0 l/m N-NO 22,8 km/h (4 Bft)
16.04.2005 18:00 16,4 C 43 % 994 hPa 0,0 l/m N-NO 16,7 km/h (3 Bft)
16.04.2005 19:00 15,7 C 45 % 994 hPa 0,0 l/m N-NO 15,7 km/h (3 Bft)
16.04.2005 20:00 14,6 C 50 % 994 hPa 0,0 l/m N-NW 11,6 km/h (2 Bft)
16.04.2005 21:00 13,2 C 52 % 995 hPa 0,0 l/m S 13,4 km/h (3 Bft)
16.04.2005 22:00 9,5 C 76 % 995 hPa 0,0 l/m SW 18,5 km/h (3 Bft)
16.04.2005 23:00 6,8 C 86 % 996 hPa 1,0 l/m SW 21,4 km/h (4 Bft)
17.04.2005 00:00 5,5 C 93 % 997 hPa 6,0 l/m W-SW 24,2 km/h (4 Bft)
17.04.2005 01:00 4,6 C 97 % 997 hPa 6,0 l/m W-SW 18,5 km/h (3 Bft)
17.04.2005 02:00 3,9 C 97 % 997 hPa 7,0 l/m SW 13,8 km/h (3 Bft)
17.04.2005 03:00 3,3 C 98 % 997 hPa 1,0 l/m S-SW 13,6 km/h (3 Bft)
17.04.2005 04:00 2,7 C 99 % 997 hPa 2,0 l/m S-SW 11,8 km/h (2 Bft)
17.04.2005 05:00 2,7 C 99 % 997 hPa 0,0 l/m SW 13,2 km/h (3 Bft)
17.04.2005 06:00 2,4 C 97 % 997 hPa 0,0 l/m S-SW 6,9 km/h (2 Bft)
17.04.2005 07:00 2,6 C 97 % 997 hPa 0,0 l/m S-SW 7,9 km/h (2 Bft)
17.04.2005 08:00 3,2 C 96 % 998 hPa 0,0 l/m S-SW 10,6 km/h (2 Bft)
17.04.2005 09:00 4,3 C 90 % 998 hPa 0,0 l/m S 14,7 km/h (3 Bft)
17.04.2005 10:00 5,9 C 78 % 999 hPa 0,0 l/m SW 15,2 km/h (3 Bft)
17.04.2005 11:00 7,3 C 72 % 999 hPa 0,0 l/m SW 14,7 km/h (3 Bft)
17.04.2005 12:00 8,4 C 67 % 999 hPa 0,0 l/m W 14,5 km/h (3 Bft)
17.04.2005 13:00 10,3 C 59 % 999 hPa 0,0 l/m W-SW 13,9 km/h (3 Bft)
17.04.2005 14:00 11,4 C 54 % 999 hPa 0,0 l/m W-SW 14,0 km/h (3 Bft)
17.04.2005 15:00 11,9 C 54 % 999 hPa 0,0 l/m W 13,4 km/h (3 Bft)
17.04.2005 16:00 12,0 C 52 % 999 hPa 0,0 l/m W 14,7 km/h (3 Bft)
17.04.2005 17:00 11,5 C 53 % 1000 hPa 0,0 l/m SW 16,7 km/h (3 Bft)
17.04.2005 18:00 10,1 C 59 % 1000 hPa 0,0 l/m SW 16,5 km/h (3 Bft)
17.04.2005 19:00 8,2 C 70 % 1001 hPa 0,0 l/m SW 14,6 km/h (3 Bft)
17.04.2005 20:00 6,9 C 77 % 1002 hPa 0,0 l/m S-SW 15,8 km/h (3 Bft)
17.04.2005 21:00 6,1 C 88 % 1002 hPa 1,0 l/m S 15,4 km/h (3 Bft)
17.04.2005 22:00 5,4 C 96 % 1002 hPa 0,0 l/m S-SW 12,8 km/h (3 Bft)
17.04.2005 23:00 5,2 C 98 % 1003 hPa 2,0 l/m S-SW 13,6 km/h (3 Bft)
Min-Datum _ 14.04.05 15.04.05 16.04.05 - - 11.04.05
_ Min-Zeit 06:42 16:04 17:14 - - 00:02
Minimum _ 1,9 C 24 % 994 hPa - - 0,0 km/h (0 Bft)
Max-Datum _ 15.04.05 14.04.05 11.04.05 17.04.05 - 11.04.05
_ Max-Zeit 17:26 08:35 00:00 02:04 - 11:46
Maximum _ 22,3 C 100 % 1025 hPa 7,0 l/m - 56,4 km/h
O-NO (7 Bft)
Durchschnitt _ 9,4 C 68 % 1010 hPa #26,0 l/m N-NO 9,9 km/h (2 Bft)

Durchschnitt Minimum Temp.8,9 C
Durchschnitt Maximum Temp.9,9 C